Time;durP1;ratioP1;P1;durP2;ratioP2;P2;SDS_P1;SDS_P2;PMS_P1;PMS_P2;Temp;Humidity;BMP_temperature;BMP_pressure;BME280_temperature;BME280_humidity;BME280_pressure;Samples;Min_cycle;Max_cycle;Signal;HPM_P1;HPM_P2
2022/01/18 00:00:23;;;;;;;30.30;10.25;;;;;;;3.19;100.00;103722.56;5115230;28;20050;-64
2022/01/18 00:02:48;;;;;;;27.15;10.15;;;;;;;3.29;100.00;103711.97;5115582;28;20365;-65
2022/01/18 00:05:15;;;;;;;37.10;11.25;;;;;;;3.38;100.00;103725.50;5115572;28;20015;-67
2022/01/18 00:07:42;;;;;;;31.27;10.85;;;;;;;3.48;100.00;103726.94;5115595;28;20370;-64
2022/01/18 00:10:07;;;;;;;35.42;10.75;;;;;;;3.54;100.00;103735.09;5114896;28;20028;-66
2022/01/18 00:17:53;;;;;;;28.92;10.10;;;;;;;3.73;100.00;103735.44;5115297;28;20385;-65
2022/01/18 00:20:29;;;;;;;35.67;11.50;;;;;;;3.84;100.00;103741.25;5115258;28;20023;-66
2022/01/18 00:22:54;;;;;;;33.58;11.45;;;;;;;3.92;100.00;103739.13;5115397;28;20358;-65
2022/01/18 00:25:19;;;;;;;34.55;11.40;;;;;;;3.91;100.00;103724.38;5115452;28;20039;-63
2022/01/18 00:27:45;;;;;;;27.20;10.30;;;;;;;3.97;100.00;103738.63;5115461;28;20046;-66
2022/01/18 00:33:11;;;;;;;38.35;11.75;;;;;;;3.95;100.00;103728.94;5115796;28;20426;-66
2022/01/18 00:35:36;;;;;;;41.20;12.38;;;;;;;4.03;100.00;103749.31;5115276;28;20032;-65
2022/01/18 00:38:14;;;;;;;39.75;11.88;;;;;;;4.09;100.00;103749.69;5115688;28;20046;-65
2022/01/18 00:40:39;;;;;;;36.22;11.68;;;;;;;4.12;100.00;103747.28;5115169;28;20032;-66
2022/01/18 00:43:05;;;;;;;39.75;11.48;;;;;;;4.12;100.00;103747.28;5114457;28;20149;-66
2022/01/18 00:45:30;;;;;;;32.05;10.90;;;;;;;4.16;100.00;103746.66;5115075;28;20327;-65
2022/01/18 00:47:56;;;;;;;31.80;11.40;;;;;;;4.15;100.00;103744.00;5115339;28;20031;-64
2022/01/18 00:50:21;;;;;;;38.22;12.25;;;;;;;4.24;100.00;103754.88;5115157;28;20101;-64
2022/01/18 00:52:51;;;;;;;40.25;10.98;;;;;;;4.24;100.00;103757.47;5115088;28;20024;-65
2022/01/18 00:55:16;;;;;;;36.75;11.13;;;;;;;4.24;100.00;103754.88;5115102;28;20110;-65
2022/01/18 00:57:41;;;;;;;45.13;12.48;;;;;;;4.25;100.00;103760.97;5099877;28;20866;-65
2022/01/18 01:00:07;;;;;;;35.25;11.68;;;;;;;4.33;100.00;103767.50;5094487;28;20025;-64
2022/01/18 01:02:32;;;;;;;32.40;11.65;;;;;;;4.34;100.00;103758.91;5094534;28;20039;-64
2022/01/18 01:04:57;;;;;;;28.40;11.73;;;;;;;4.34;100.00;103767.56;5094268;28;20039;-63
2022/01/18 01:07:23;;;;;;;40.03;12.98;;;;;;;4.36;100.00;103760.78;5094811;28;20036;-65
2022/01/18 01:09:50;;;;;;;37.10;11.68;;;;;;;4.37;100.00;103754.81;5094576;28;20104;-66
2022/01/18 01:12:18;;;;;;;30.20;11.15;;;;;;;4.38;100.00;103755.69;5094403;28;20062;-64
2022/01/18 01:14:45;;;;;;;36.25;12.15;;;;;;;4.40;100.00;103762.75;5094252;28;20044;-66
2022/01/18 01:17:24;;;;;;;38.17;12.98;;;;;;;4.43;100.00;103759.47;5094331;28;20021;-65
2022/01/18 01:34:38;;;;;;;47.33;13.45;;;;;;;4.50;100.00;103754.69;5098194;28;20054;-66
2022/01/18 01:36:37;;;;;;;46.03;13.93;;;;;;;4.49;100.00;103752.94;5084129;28;20032;-64
2022/01/18 01:42:05;;;;;;;48.10;13.77;;;;;;;4.51;100.00;103755.59;5076169;28;20439;-65
2022/01/18 01:44:46;;;;;;;;;;;;;;;4.62;100.00;103756.22;5098185;28;20024;-65
2022/01/18 01:47:18;;;;;;;40.58;13.55;;;;;;;4.51;100.00;103746.13;5097701;28;19987;-65
2022/01/18 01:49:49;;;;;;;49.38;14.30;;;;;;;4.53;100.00;103749.69;5097588;28;20036;-65
2022/01/18 01:52:15;;;;;;;43.88;14.00;;;;;;;4.58;100.00;103746.47;5097656;28;20109;-67
2022/01/18 01:54:40;;;;;;;44.22;14.35;;;;;;;4.56;100.00;103743.78;5097551;28;20411;-65
2022/01/18 01:57:06;;;;;;;40.80;14.02;;;;;;;4.54;100.00;103758.38;5097793;28;20032;-65
2022/01/18 01:59:32;;;;;;;49.20;14.02;;;;;;;4.55;100.00;103747.19;5097521;28;20038;-67
2022/01/18 02:01:57;;;;;;;47.80;14.48;;;;;;;4.56;100.00;103748.97;5097653;28;20039;-68
2022/01/18 02:04:23;;;;;;;48.40;14.57;;;;;;;4.54;100.00;103756.66;5097592;28;20028;-66
2022/01/18 02:06:48;;;;;;;45.47;14.23;;;;;;;4.49;100.00;103758.13;5097291;28;20043;-66
2022/01/18 02:09:13;;;;;;;55.50;15.25;;;;;;;4.51;100.00;103750.41;5097548;28;20032;-66
2022/01/18 02:11:39;;;;;;;53.58;14.93;;;;;;;4.53;100.00;103760.06;5097051;28;20503;-65
2022/01/18 02:14:07;;;;;;;52.80;15.70;;;;;;;4.55;100.00;103758.47;5097229;28;20040;-65
2022/01/18 02:22:04;;;;;;;35.10;13.77;;;;;;;4.51;100.00;103747.81;5097090;28;20051;-65
2022/01/18 02:24:30;;;;;;;52.42;15.43;;;;;;;4.53;100.00;103754.88;5097185;28;20039;-67
2022/01/18 02:26:57;;;;;;;52.03;14.48;;;;;;;4.58;100.00;103759.44;5097769;28;20028;-65
2022/01/18 02:29:22;;;;;;;53.63;15.52;;;;;;;4.54;100.00;103748.00;5096785;28;20043;-66
2022/01/18 02:31:48;;;;;;;50.72;15.13;;;;;;;4.61;100.00;103746.66;5096608;28;20028;-66
2022/01/18 02:34:18;;;;;;;50.55;15.18;;;;;;;4.60;100.00;103750.97;5096322;28;20120;-67
2022/01/18 02:36:44;;;;;;;44.00;15.63;;;;;;;4.60;100.00;103750.06;5096584;28;20346;-66
2022/01/18 02:39:10;;;;;;;51.03;16.05;;;;;;;4.64;100.00;103739.97;5096585;28;20024;-67
2022/01/18 02:41:36;;;;;;;45.10;15.50;;;;;;;4.60;100.00;103734.50;5096704;28;20046;-67
2022/01/18 02:44:06;;;;;;;47.83;16.23;;;;;;;4.63;100.00;103745.94;5096345;28;20043;-67
2022/01/18 02:46:32;;;;;;;47.85;17.08;;;;;;;4.59;100.00;103738.78;5096560;28;20031;-64
2022/01/18 02:48:59;;;;;;;45.97;15.32;;;;;;;4.61;100.00;103731.09;5096474;28;20070;-65
2022/01/18 02:51:24;;;;;;;56.53;16.40;;;;;;;4.62;100.00;103738.09;5096593;28;20435;-65
2022/01/18 02:54:05;;;;;;;54.90;19.20;;;;;;;4.60;100.00;103731.91;5096302;28;20024;-66
2022/01/18 02:56:45;;;;;;;48.85;16.65;;;;;;;4.59;100.00;103743.97;5096199;28;20039;-65
2022/01/18 02:59:19;;;;;;;52.22;16.95;;;;;;;4.63;100.00;103750.25;5096503;28;20032;-65
2022/01/18 03:04:29;;;;;;;46.88;16.42;;;;;;;4.64;100.00;103746.84;5096504;28;20520;-66
2022/01/18 03:06:54;;;;;;;44.20;16.73;;;;;;;4.62;100.00;103744.16;5095992;28;20044;-65
2022/01/18 03:09:20;;;;;;;48.75;16.90;;;;;;;4.64;100.00;103737.38;5095933;28;20036;-67
2022/01/18 03:11:45;;;;;;;51.17;17.27;;;;;;;4.65;100.00;103738.25;5096132;28;20085;-66
2022/01/18 03:14:11;;;;;;;43.38;16.67;;;;;;;4.64;100.00;103731.28;5095997;28;20351;-64
2022/01/18 03:16:37;;;;;;;49.15;16.25;;;;;;;4.67;100.00;103734.97;5096009;28;20036;-67
2022/01/18 03:19:02;;;;;;;44.47;16.02;;;;;;;4.64;100.00;103739.06;5096036;28;20043;-66
2022/01/18 03:21:28;;;;;;;42.10;17.25;;;;;;;4.59;100.00;103738.78;5095730;28;20405;-66
2022/01/18 03:24:09;;;;;;;51.92;17.70;;;;;;;4.58;100.00;103747.38;5096135;28;20073;-67
2022/01/18 03:28:03;;;;;;;54.67;18.15;;;;;;;4.57;100.00;103747.28;5095929;28;20074;-65
2022/01/18 03:29:20;;;;;;;48.13;17.83;;;;;;;4.63;100.00;103755.44;5095740;28;20096;-65
2022/01/18 03:31:45;;;;;;;49.83;17.65;;;;;;;4.59;100.00;103741.38;5095780;28;20020;-68
2022/01/18 03:34:10;;;;;;;47.08;17.13;;;;;;;4.61;100.00;103747.56;5095846;28;20040;-65
2022/01/18 03:36:35;;;;;;;41.90;18.25;;;;;;;4.61;100.00;103751.84;5095666;28;20039;-66
2022/01/18 03:39:01;;;;;;;50.17;17.77;;;;;;;4.63;100.00;103756.31;5095541;28;20343;-66
2022/01/18 03:41:26;;;;;;;49.72;18.90;;;;;;;4.63;100.00;103751.13;5095687;28;20035;-67
2022/01/18 03:43:53;;;;;;;52.67;18.35;;;;;;;4.68;100.00;103756.56;5095085;28;20042;-65
2022/01/18 03:46:19;;;;;;;50.45;18.20;;;;;;;4.70;100.00;103747.19;5095443;28;20443;-65
2022/01/18 03:48:50;;;;;;;45.65;17.48;;;;;;;4.67;100.00;103744.44;5095334;28;20032;-67
2022/01/18 03:51:15;;;;;;;42.20;18.95;;;;;;;4.69;100.00;103745.38;5095355;28;20036;-67
2022/01/18 03:53:40;;;;;;;45.80;17.90;;;;;;;4.66;100.00;103740.94;5095424;28;20040;-67
2022/01/18 03:56:06;;;;;;;41.80;17.75;;;;;;;4.67;100.00;103762.59;5095518;28;20111;-65
2022/01/18 03:58:33;;;;;;;50.90;19.92;;;;;;;4.63;100.00;103766.69;5095433;28;20449;-66
2022/01/18 04:00:59;;;;;;;49.80;18.85;;;;;;;4.60;100.00;103769.09;5095478;28;20040;-65
2022/01/18 04:03:24;;;;;;;47.47;18.83;;;;;;;4.62;100.00;103775.28;5095534;28;20111;-66
2022/01/18 04:05:52;;;;;;;49.60;20.00;;;;;;;4.58;100.00;103759.44;5094879;28;20097;-65
2022/01/18 04:08:17;;;;;;;44.80;18.55;;;;;;;4.63;100.00;103768.41;5095181;28;20024;-65
2022/01/18 04:10:43;;;;;;;38.22;19.58;;;;;;;4.61;100.00;103767.41;5095223;28;20391;-65
2022/01/18 04:13:09;;;;;;;44.03;20.08;;;;;;;4.65;100.00;103784.94;5095184;28;20106;-67
2022/01/18 04:15:35;;;;;;;43.35;19.83;;;;;;;4.61;100.00;103772.59;5094919;28;20083;-66
2022/01/18 04:18:30;;;;;;;42.17;19.48;;;;;;;4.54;100.00;103753.19;5094956;28;20044;-65
2022/01/18 04:28:53;;;;;;;45.22;20.48;;;;;;;4.60;100.00;103783.78;5094854;28;20048;-67
2022/01/18 04:31:19;;;;;;;50.85;20.58;;;;;;;4.56;100.00;103782.69;5094794;28;20050;-66
2022/01/18 04:33:44;;;;;;;44.85;21.60;;;;;;;4.57;100.00;103784.50;5094980;28;20032;-65
2022/01/18 04:36:10;;;;;;;46.80;21.33;;;;;;;4.55;100.00;103778.31;5103446;28;20445;-66
2022/01/18 04:38:36;;;;;;;44.05;21.38;;;;;;;4.58;100.00;103782.78;5115509;28;20028;-67
2022/01/18 04:41:12;;;;;;;45.03;22.23;;;;;;;4.49;100.00;103773.69;5115140;28;20043;-67
2022/01/18 04:48:58;;;;;;;52.50;20.55;;;;;;;4.44;100.00;103779.41;5114937;28;20104;-66
2022/01/18 04:51:24;;;;;;;43.33;21.13;;;;;;;4.45;100.00;103782.09;5115113;28;20040;-64
2022/01/18 04:53:54;;;;;;;46.70;20.98;;;;;;;4.51;100.00;103782.41;5114871;28;20369;-67
2022/01/18 04:59:08;;;;;;;41.28;20.80;;;;;;;4.48;100.00;103777.09;5119059;28;20036;-65
2022/01/18 05:01:36;;;;;;;46.70;21.17;;;;;;;4.51;100.00;103786.72;5119185;28;20130;-65
2022/01/18 05:04:01;;;;;;;44.10;20.92;;;;;;;4.55;100.00;103793.88;5118816;28;20097;-65
2022/01/18 05:06:26;;;;;;;51.83;22.10;;;;;;;4.53;100.00;103791.19;5118818;28;20031;-67
2022/01/18 05:08:52;;;;;;;45.75;20.75;;;;;;;4.48;100.00;103781.38;5118893;28;20031;-64
2022/01/18 05:11:20;;;;;;;54.55;21.67;;;;;;;4.50;100.00;103798.78;5118660;28;20043;-65
2022/01/18 05:19:01;;;;;;;57.40;22.48;;;;;;;4.52;100.00;103804.06;5119019;28;20457;-65
2022/01/18 05:23:52;;;;;;;51.38;21.58;;;;;;;4.51;100.00;103791.91;5118832;28;20334;-65
2022/01/18 05:26:18;;;;;;;50.05;20.67;;;;;;;4.58;100.00;103790.56;5118569;28;20426;-65
2022/01/18 05:28:44;;;;;;;53.05;21.63;;;;;;;4.54;100.00;103786.91;5118389;28;20041;-65
2022/01/18 05:31:09;;;;;;;56.05;21.10;;;;;;;4.57;100.00;103796.56;5118646;28;20106;-66
2022/01/18 05:33:35;;;;;;;53.60;22.50;;;;;;;4.48;100.00;103782.28;5118229;28;20038;-64
2022/01/18 05:36:00;;;;;;;54.80;20.73;;;;;;;4.52;100.00;103792.00;5123968;28;20028;-66
2022/01/18 05:38:26;;;;;;;52.70;20.52;;;;;;;4.53;100.00;103801.56;5120170;28;20039;-67
2022/01/18 05:40:51;;;;;;;48.10;20.40;;;;;;;4.52;100.00;103792.00;5118427;28;20116;-67
2022/01/18 05:43:17;;;;;;;54.45;20.85;;;;;;;4.54;100.00;103792.09;5118463;28;20035;-64
2022/01/18 05:45:43;;;;;;;57.05;21.30;;;;;;;4.53;100.00;103792.88;5118202;28;20066;-65
2022/01/18 05:48:08;;;;;;;54.90;20.95;;;;;;;4.51;100.00;103786.72;5118064;28;20035;-66
2022/01/18 05:50:35;;;;;;;47.45;20.10;;;;;;;4.55;100.00;103783.50;5116088;28;20431;-65
2022/01/18 05:53:00;;;;;;;49.30;20.40;;;;;;;4.59;100.00;103789.78;5117497;28;20374;-66
2022/01/18 05:55:25;;;;;;;60.05;20.48;;;;;;;4.56;100.00;103787.88;5117317;28;20027;-66
2022/01/18 05:57:51;;;;;;;52.53;19.73;;;;;;;4.55;100.00;103792.19;5117485;28;20038;-65
2022/01/18 06:00:22;;;;;;;55.22;20.30;;;;;;;4.57;100.00;103793.97;5117842;28;20422;-65
2022/01/18 06:03:37;;;;;;;52.45;20.33;;;;;;;4.60;100.00;103796.75;5117774;28;20035;-65
2022/01/18 06:08:17;;;;;;;50.92;18.70;;;;;;;4.55;100.00;103783.50;5116995;28;20136;-67
2022/01/18 06:10:42;;;;;;;53.00;19.10;;;;;;;4.55;100.00;103780.91;5117302;28;20062;-66
2022/01/18 06:13:08;;;;;;;51.03;18.85;;;;;;;4.58;100.00;103788.88;5117051;28;20038;-65
2022/01/18 06:15:34;;;;;;;46.47;18.63;;;;;;;4.45;100.00;103771.72;5117415;28;20381;-64
2022/01/18 06:17:59;;;;;;;49.75;18.20;;;;;;;4.48;100.00;103778.78;5117542;28;20027;-66
2022/01/18 06:20:25;;;;;;;50.40;18.60;;;;;;;4.48;100.00;103779.69;5117446;28;20038;-66
2022/01/18 06:22:51;;;;;;;45.97;17.60;;;;;;;4.58;100.00;103791.47;5117210;28;20032;-66
2022/01/18 06:25:18;;;;;;;53.85;18.63;;;;;;;4.57;100.00;103806.94;5117069;28;20362;-65
2022/01/18 06:27:44;;;;;;;51.53;17.92;;;;;;;4.59;100.00;103789.78;5116788;28;20371;-64
2022/01/18 06:30:10;;;;;;;46.60;18.25;;;;;;;4.60;100.00;103796.75;5117084;28;20088;-65
2022/01/18 06:32:37;;;;;;;48.00;17.83;;;;;;;4.61;100.00;103798.53;5116967;28;20084;-65
2022/01/18 06:35:04;;;;;;;57.55;18.38;;;;;;;4.60;100.00;103791.56;5116972;28;20041;-65
2022/01/18 06:37:29;;;;;;;50.97;18.45;;;;;;;4.49;100.00;103786.66;5117563;28;20043;-67
2022/01/18 06:39:57;;;;;;;54.08;18.63;;;;;;;4.61;100.00;103793.34;5117074;28;20027;-66
2022/01/18 06:42:24;;;;;;;61.30;19.63;;;;;;;4.54;100.00;103785.19;5116758;28;20031;-66
2022/01/18 06:44:49;;;;;;;52.50;19.10;;;;;;;4.51;100.00;103776.34;5117225;28;20351;-65
2022/01/18 06:47:15;;;;;;;55.22;19.13;;;;;;;4.55;100.00;103794.75;5116747;28;20035;-67
2022/01/18 06:49:40;;;;;;;61.78;19.83;;;;;;;4.51;100.00;103791.91;5114231;28;20038;-66
2022/01/18 06:52:05;;;;;;;49.08;19.08;;;;;;;4.52;100.00;103794.59;5116523;28;20031;-65
2022/01/18 06:54:31;;;;;;;53.58;19.48;;;;;;;4.54;100.00;103790.38;5116856;28;20475;-64
2022/01/18 06:56:56;;;;;;;64.05;19.88;;;;;;;4.54;100.00;103797.28;5116731;28;20464;-65
2022/01/18 06:59:21;;;;;;;55.80;19.65;;;;;;;4.58;100.00;103806.13;5116492;28;20038;-65
2022/01/18 07:01:46;;;;;;;53.65;19.65;;;;;;;4.58;100.00;103803.53;5116789;28;20508;-64
2022/01/18 07:04:12;;;;;;;59.95;19.05;;;;;;;4.60;100.00;103808.00;5116689;28;20024;-64
2022/01/18 07:06:37;;;;;;;62.88;20.05;;;;;;;4.55;100.00;103807.72;5116681;28;20430;-65
2022/01/18 07:09:03;;;;;;;56.25;20.65;;;;;;;4.58;100.00;103811.31;5116354;28;20354;-65
2022/01/18 07:11:28;;;;;;;56.15;19.83;;;;;;;4.58;100.00;103819.09;5116178;28;20119;-66
2022/01/18 07:13:53;;;;;;;54.30;19.33;;;;;;;4.53;100.00;103804.16;5116379;28;20442;-67
2022/01/18 07:16:19;;;;;;;47.80;18.73;;;;;;;4.55;100.00;103802.53;5116660;28;20038;-66
2022/01/18 07:18:44;;;;;;;67.75;20.20;;;;;;;4.60;100.00;103815.78;5115945;28;20081;-65
2022/01/18 07:21:10;;;;;;;56.20;20.08;;;;;;;4.55;100.00;103807.72;5116120;28;20049;-66
2022/01/18 07:23:39;;;;;;;60.50;19.85;;;;;;;4.51;100.00;103816.13;5116062;28;20051;-66
2022/01/18 07:26:05;;;;;;;62.42;19.70;;;;;;;4.57;100.00;103819.91;5116112;28;20042;-67
2022/01/18 07:28:30;;;;;;;59.00;20.73;;;;;;;4.54;100.00;103818.00;5116299;28;20023;-66
2022/01/18 07:30:56;;;;;;;60.53;20.33;;;;;;;4.49;100.00;103812.59;5116224;28;20035;-67
2022/01/18 07:33:21;;;;;;;54.42;19.88;;;;;;;4.50;100.00;103819.53;5115943;28;20055;-66
2022/01/18 07:35:47;;;;;;;57.13;19.75;;;;;;;4.51;100.00;103818.72;5115845;28;20077;-66
2022/01/18 07:38:16;;;;;;;54.53;19.35;;;;;;;4.57;100.00;103825.09;5115745;28;20051;-66
2022/01/18 07:40:43;;;;;;;52.60;19.45;;;;;;;4.61;100.00;103832.25;5115859;28;20030;-67
2022/01/18 07:43:09;;;;;;;50.85;19.38;;;;;;;4.65;100.00;103827.34;5116057;28;20045;-64
2022/01/18 07:45:35;;;;;;;55.70;19.25;;;;;;;4.62;100.00;103816.78;5115766;28;20372;-66
2022/01/18 07:48:00;;;;;;;49.33;18.52;;;;;;;4.61;100.00;103833.16;5116031;28;20080;-66
2022/01/18 07:50:26;;;;;;;47.67;18.92;;;;;;;4.65;100.00;103834.22;5115861;28;20031;-64
2022/01/18 07:52:52;;;;;;;45.20;18.30;;;;;;;4.65;100.00;103842.00;5115632;28;20418;-66
2022/01/18 07:55:17;;;;;;;48.05;17.40;;;;;;;4.59;100.00;103824.38;5115564;28;20047;-64
2022/01/18 07:57:43;;;;;;;52.47;18.33;;;;;;;4.64;100.00;103838.53;5115607;28;20483;-66
2022/01/18 08:00:10;;;;;;;52.10;18.25;;;;;;;4.67;100.00;103840.41;5115474;28;20051;-65
2022/01/18 08:02:36;;;;;;;53.17;19.23;;;;;;;4.74;100.00;103839.94;5115740;28;20024;-64
2022/01/18 08:05:06;;;;;;;45.97;18.75;;;;;;;4.74;100.00;103837.34;5115621;28;20035;-66
2022/01/18 08:07:32;;;;;;;56.47;19.30;;;;;;;4.74;100.00;103851.22;5114914;28;20480;-65
2022/01/18 08:09:57;;;;;;;50.72;18.17;;;;;;;4.78;100.00;103849.69;5115109;28;20059;-65
2022/01/18 08:12:23;;;;;;;45.30;18.52;;;;;;;4.80;100.00;103848.97;5115138;28;20041;-66
2022/01/18 08:14:50;;;;;;;46.22;18.63;;;;;;;4.81;100.00;103845.59;5115264;28;20468;-65
2022/01/18 08:17:16;;;;;;;44.33;18.60;;;;;;;4.81;100.00;103837.81;5115420;28;20034;-66
2022/01/18 08:19:41;;;;;;;55.42;19.65;;;;;;;4.87;100.00;103842.44;5115461;28;20346;-64
2022/01/18 08:22:08;;;;;;;53.35;18.40;;;;;;;4.80;100.00;103814.38;5115221;28;20028;-63
2022/01/18 08:24:35;;;;;;;41.75;17.25;;;;;;;4.92;100.00;103830.63;5115564;28;20035;-67
2022/01/18 08:27:00;;;;;;;43.70;17.60;;;;;;;4.94;100.00;103839.41;5115350;28;20048;-65
2022/01/18 08:29:27;;;;;;;41.38;16.17;;;;;;;4.94;100.00;103829.03;5115422;28;20074;-64
2022/01/18 08:31:52;;;;;;;40.28;16.05;;;;;;;5.02;100.00;103838.13;5118945;28;20043;-62
2022/01/18 08:34:18;;;;;;;44.95;16.33;;;;;;;5.01;100.00;103820.78;5119363;28;20367;-65
2022/01/18 08:36:43;;;;;;;40.47;16.30;;;;;;;5.01;100.00;103822.50;5119465;28;20081;-64
2022/01/18 08:39:09;;;;;;;45.97;17.60;;;;;;;5.02;100.00;103827.72;5107465;28;20354;-63
2022/01/18 08:41:35;;;;;;;54.08;17.98;;;;;;;5.00;100.00;103815.50;5098913;28;20116;-63
2022/01/18 08:44:00;;;;;;;49.72;18.02;;;;;;;4.95;100.00;103809.16;5098926;28;20443;-64
2022/01/18 08:46:26;;;;;;;49.65;18.60;;;;;;;5.06;100.00;103827.13;5098706;28;20114;-63
2022/01/18 08:48:51;;;;;;;54.45;19.67;;;;;;;5.09;100.00;103827.28;5098599;28;20173;-64
2022/01/18 08:51:17;;;;;;;61.13;20.42;;;;;;;5.15;100.00;103831.94;5098543;28;20436;-66
2022/01/18 08:53:48;;;;;;;63.63;20.48;;;;;;;5.13;100.00;103836.16;5098330;28;20347;-65
2022/01/18 08:56:15;;;;;;;55.10;20.13;;;;;;;5.18;100.00;103834.72;5098219;28;20486;-63
2022/01/18 08:58:40;;;;;;;63.13;21.77;;;;;;;5.16;100.00;103829.44;5098330;28;20032;-63
2022/01/18 09:01:05;;;;;;;61.25;19.63;;;;;;;5.13;100.00;103829.25;5098410;28;20206;-65
2022/01/18 09:03:31;;;;;;;61.25;20.98;;;;;;;5.18;100.00;103833.03;5080402;28;20065;-66
2022/01/18 09:05:57;;;;;;;64.57;21.13;;;;;;;5.17;100.00;103825.16;5098064;28;20462;-65
2022/01/18 09:08:23;;;;;;;60.13;21.75;;;;;;;5.22;100.00;103832.38;5098418;28;20032;-63
2022/01/18 09:10:48;;;;;;;68.80;20.83;;;;;;;5.25;100.00;103839.44;5098019;28;20046;-64
2022/01/18 09:13:15;;;;;;;56.28;20.30;;;;;;;5.28;100.00;103833.53;5098093;28;20036;-63
2022/01/18 09:15:41;;;;;;;57.42;20.35;;;;;;;5.33;100.00;103832.97;5098219;28;20070;-64
2022/01/18 09:18:06;;;;;;;55.15;20.02;;;;;;;5.36;100.00;103843.56;5097864;28;20024;-65
2022/01/18 09:20:32;;;;;;;56.50;19.33;;;;;;;5.40;100.00;103835.09;5097833;28;20043;-65
2022/01/18 09:22:57;;;;;;;61.60;20.73;;;;;;;5.45;100.00;103841.44;5098121;28;20468;-64
2022/01/18 09:25:24;;;;;;;54.83;19.63;;;;;;;5.56;100.00;103849.81;5098036;28;20517;-64
2022/01/18 09:27:51;;;;;;;58.78;19.73;;;;;;;5.61;100.00;103845.78;5097979;28;20036;-64
2022/01/18 09:30:17;;;;;;;54.13;18.85;;;;;;;5.59;100.00;103845.69;5098308;28;20032;-63
2022/01/18 09:32:44;;;;;;;54.90;18.65;;;;;;;5.65;100.00;103854.66;5097950;28;20032;-64
2022/01/18 09:35:11;;;;;;;43.15;17.73;;;;;;;5.69;100.00;103854.91;5097013;28;20097;-64
2022/01/18 09:37:36;;;;;;;47.17;17.25;;;;;;;5.71;100.00;103852.41;5097535;28;20039;-63
2022/01/18 09:40:03;;;;;;;49.33;17.80;;;;;;;5.77;100.00;103857.91;5097230;28;20458;-65
2022/01/18 09:42:34;;;;;;;45.30;17.75;;;;;;;5.79;100.00;103851.09;5096273;28;20039;-65
2022/01/18 09:45:08;;;;;;;45.03;17.88;;;;;;;5.85;100.00;103856.63;5097391;28;20032;-65
2022/01/18 09:47:35;;;;;;;50.85;18.33;;;;;;;5.86;100.00;103854.13;5097298;28;20027;-66
2022/01/18 09:50:01;;;;;;;52.55;19.50;;;;;;;5.88;100.00;103856.81;5097016;28;20035;-64
2022/01/18 09:52:27;;;;;;;42.17;17.88;;;;;;;5.93;100.00;103860.56;5097169;28;20455;-65
2022/01/18 09:54:52;;;;;;;47.67;18.55;;;;;;;5.93;100.00;103852.75;5097149;28;20099;-66
2022/01/18 09:57:18;;;;;;;47.55;19.00;;;;;;;6.01;100.00;103853.19;5097052;28;20057;-63
2022/01/18 09:59:43;;;;;;;46.80;18.48;;;;;;;6.08;100.00;103866.56;5097153;28;20457;-62
2022/01/18 10:02:11;;;;;;;47.65;19.23;;;;;;;6.17;100.00;103864.47;5097129;28;20036;-64
2022/01/18 10:04:42;;;;;;;41.50;19.10;;;;;;;6.21;100.00;103861.25;5097183;28;20036;-65
2022/01/18 10:07:07;;;;;;;49.60;20.48;;;;;;;6.27;100.00;103858.94;5097391;28;20089;-66
2022/01/18 10:09:34;;;;;;;41.10;19.20;;;;;;;6.35;100.00;103864.56;5097243;28;20518;-64
2022/01/18 10:12:14;;;;;;;43.40;20.15;;;;;;;6.39;100.00;103863.00;5096973;28;20439;-65
2022/01/18 10:15:00;;;;;;;42.33;19.92;;;;;;;6.45;100.00;103871.13;5096656;28;20059;-65
2022/01/18 10:17:36;;;;;;;48.05;20.25;;;;;;;6.45;100.00;103855.50;5115948;28;20040;-65
2022/01/18 10:20:17;;;;;;;42.80;20.40;;;;;;;6.58;100.00;103866.63;5117203;28;20039;-66
2022/01/18 10:22:48;;;;;;;44.70;20.67;;;;;;;6.67;100.00;103865.31;5117384;28;20084;-64
2022/01/18 10:25:26;;;;;;;46.13;21.73;;;;;;;6.75;100.00;103854.50;5116935;28;20031;-66
2022/01/18 10:27:53;;;;;;;44.97;21.73;;;;;;;6.81;100.00;103843.47;5117247;28;20342;-65
2022/01/18 10:30:32;;;;;;;47.47;21.70;;;;;;;6.87;100.00;103857.72;5117080;28;20089;-65
2022/01/18 10:33:15;;;;;;;46.20;21.35;;;;;;;7.03;100.00;103861.97;5101624;28;20064;-65
2022/01/18 10:36:11;;;;;;;46.95;20.67;;;;;;;7.22;100.00;103845.53;5095902;28;20470;-65
2022/01/18 10:38:43;;;;;;;48.33;20.73;;;;;;;7.28;100.00;103843.19;5096784;28;20028;-65
2022/01/18 10:41:28;;;;;;;48.92;21.30;;;;;;;7.46;100.00;103848.41;5096216;28;20350;-65
2022/01/18 10:44:13;;;;;;;46.88;21.30;;;;;;;7.45;100.00;103823.16;5096534;28;20339;-64
2022/01/18 10:46:45;;;;;;;46.55;20.95;;;;;;;7.61;100.00;103838.72;5096370;28;20097;-64
2022/01/18 10:49:10;;;;;;;45.25;20.58;;;;;;;7.61;100.00;103838.72;5096184;28;20455;-64
2022/01/18 10:51:47;;;;;;;43.58;20.10;;;;;;;7.60;100.00;103842.16;5096139;28;20043;-64
2022/01/18 10:54:13;;;;;;;44.97;19.20;;;;;;;7.64;100.00;103829.31;5095930;28;20085;-63
2022/01/18 10:56:43;;;;;;;42.83;18.33;;;;;;;7.67;100.00;103829.44;5096138;28;20031;-64
2022/01/18 10:59:29;;;;;;;39.70;18.38;;;;;;;7.60;100.00;103823.91;5095888;28;20054;-64
2022/01/18 11:02:12;;;;;;;41.20;18.23;;;;;;;7.57;100.00;103822.03;5095662;28;20138;-66
2022/01/18 11:05:06;;;;;;;41.50;20.30;;;;;;;7.61;100.00;103829.19;5096263;28;20346;-60
2022/01/18 11:07:38;;;;;;;47.53;21.67;;;;;;;7.67;100.00;103811.22;5092523;28;20048;-65
2022/01/18 11:10:05;;;;;;;44.97;20.73;;;;;;;7.66;100.00;103800.72;5095765;28;20454;-66
2022/01/18 11:12:44;;;;;;;45.28;20.50;;;;;;;7.79;100.00;103815.22;5095803;28;20054;-63
2022/01/18 11:15:16;;;;;;;46.78;19.23;;;;;;;7.81;100.00;103813.53;5095889;28;20466;-64
2022/01/18 11:17:49;;;;;;;42.45;17.50;;;;;;;7.95;100.00;103821.19;5109011;28;20400;-63
2022/01/18 11:20:15;;;;;;;44.33;17.38;;;;;;;8.08;100.00;103817.41;5115924;28;20032;-64
2022/01/18 11:22:42;;;;;;;39.58;15.85;;;;;;;8.16;100.00;103818.63;5115822;28;20035;-64
2022/01/18 11:25:07;;;;;;;43.45;15.15;;;;;;;8.20;100.00;103804.00;5115936;28;20039;-63
2022/01/18 11:27:35;;;;;;;40.55;15.15;;;;;;;8.16;100.00;103804.69;5115731;28;20032;-66
2022/01/18 11:30:01;;;;;;;42.22;16.83;;;;;;;8.13;100.00;103804.59;5116175;28;20055;-64
2022/01/18 11:32:28;;;;;;;40.08;15.45;;;;;;;7.99;99.83;103811.75;5116107;28;20078;-64
2022/01/18 11:35:09;;;;;;;40.13;16.25;;;;;;;7.89;100.00;103809.59;5115216;28;20435;-63
2022/01/18 11:37:49;;;;;;;38.70;16.60;;;;;;;7.73;100.00;103812.31;5115867;28;20031;-65
2022/01/18 11:40:16;;;;;;;37.95;17.05;;;;;;;7.62;100.00;103807.47;5115789;28;20051;-64
2022/01/18 11:42:46;;;;;;;50.47;18.15;;;;;;;7.55;100.00;103799.34;5115945;28;20426;-65
2022/01/18 11:45:23;;;;;;;45.30;16.85;;;;;;;7.61;100.00;103794.41;5115571;28;20027;-66
2022/01/18 11:48:07;;;;;;;45.65;17.13;;;;;;;7.64;100.00;103799.75;5115224;28;20100;-64
2022/01/18 11:50:44;;;;;;;42.22;17.13;;;;;;;7.78;100.00;103798.69;5115309;28;20032;-66
2022/01/18 11:53:37;;;;;;;44.85;16.20;;;;;;;7.76;100.00;103794.22;5115710;28;20028;-65
2022/01/18 11:56:03;;;;;;;40.85;15.35;;;;;;;7.67;100.00;103789.47;5115132;28;20036;-65
2022/01/18 11:58:31;;;;;;;39.53;14.75;;;;;;;7.70;100.00;103794.81;5115297;28;20035;-64
2022/01/18 12:00:59;;;;;;;40.88;14.85;;;;;;;7.76;100.00;103795.13;5115181;28;20031;-64
2022/01/18 12:03:41;;;;;;;40.20;15.38;;;;;;;7.90;100.00;103801.84;5115714;28;20080;-65
2022/01/18 12:06:08;;;;;;;42.92;15.23;;;;;;;7.84;100.00;103791.13;5114691;28;20093;-65
2022/01/18 12:08:38;;;;;;;40.47;15.30;;;;;;;7.76;100.00;103782.06;5115228;28;20110;-63
2022/01/18 12:11:06;;;;;;;36.03;14.93;;;;;;;7.69;100.00;103786.09;5115205;28;20058;-65
2022/01/18 12:13:36;;;;;;;41.75;15.57;;;;;;;7.63;100.00;103793.63;5114918;28;20051;-66